This is the latest recevied weather packets stored in our database for station/object N8TWM-13. If no packets are shown the sender has not sent any weather packets the latest 10 day(s).
| Time | Temp. | Humidity | Pressure | Rain* | Wind** | Luminosity | Snow |
|---|---|---|---|---|---|---|---|
| 1787863803 | 26.67° C | 65% | 1015.8 hPa | 0 mm | - | 439 W/m² | - |
| 1787863502 | 27.22° C | 65% | 1015.5 hPa | 0 mm | - | 92 W/m² | - |
| 1787863198 | 27.22° C | 64% | 1015.6 hPa | 0 mm | - | 488 W/m² | - |
| 1787862593 | 27.22° C | 63% | 1015.5 hPa | 0 mm | - | 462 W/m² | - |
| 1787862289 | 27.22° C | 64% | 1015.4 hPa | 0 mm | - | 486 W/m² | - |
| 1787861989 | 26.67° C | 65% | 1015.7 hPa | 0 mm | - | 436 W/m² | - |
| 1787861683 | 27.78° C | 64% | 1015.6 hPa | 0 mm | - | 146 W/m² | - |
| 1787861382 | 27.22° C | 66% | 1015.6 hPa | 0 mm | - | 496 W/m² | - |
| 1787861077 | 27.22° C | 64% | 1015.6 hPa | 0 mm | - | 583 W/m² | - |
| 1787860775 | 28.33° C | 63% | 1015.3 hPa | 0 mm | - | 178 W/m² | - |
| 1787860471 | 27.78° C | 62% | 1015.3 hPa | 0 mm | - | 599 W/m² | - |
| 1787860171 | 27.78° C | 62% | 1014.9 hPa | 0 mm | - | 596 W/m² | - |
| 1787859866 | 27.22° C | 64% | 1015 hPa | 0 mm | - | 626 W/m² | - |
| 1787859561 | 26.67° C | 67% | 1015.2 hPa | 0 mm | - | 590 W/m² | - |
| 1787859255 | 26.67° C | 66% | 1015.3 hPa | 0 mm | - | 605 W/m² | - |
| 1787858952 | 26.67° C | 65% | 1015.2 hPa | 0 mm | - | 628 W/m² | - |
| 1787858648 | 27.22° C | 64% | 1015 hPa | 0 mm | - | 134 W/m² | - |
| 1787858343 | 27.22° C | 65% | 1015.3 hPa | 0 mm | - | 618 W/m² | - |
| 1787858037 | 27.22° C | 64% | 1015.1 hPa | 0 mm | - | 128 W/m² | - |
| 1787857733 | 27.22° C | 66% | 1015.2 hPa | 0 mm | - | 208 W/m² | - |
| 1787857429 | 27.22° C | 64% | 1015.3 hPa | 0 mm | - | 671 W/m² | - |
| 1787857126 | 27.78° C | 64% | 1015.3 hPa | 0 mm | - | 198 W/m² | - |
| 1787856822 | 27.78° C | 62% | 1015.5 hPa | 0 mm | - | 732 W/m² | - |
| 1787856516 | 27.78° C | 61% | 1015.4 hPa | 0 mm | - | 707 W/m² | - |
| 1787856211 | 27.22° C | 62% | 1015.4 hPa | 0 mm | - | 691 W/m² | - |
* Rain latest hour (hover to see other rain measurements)
** Current wind speed in m/s (hover to see current wind gust speed)